createdAt,value
2022-10-14T00:01:13.195Z,10.40
2022-10-14T00:03:40.308Z,10.40
2022-10-14T00:06:18.344Z,10.40
2022-10-14T00:08:47.501Z,10.40
2022-10-14T00:11:27.610Z,10.40
2022-10-14T00:13:56.143Z,10.30
2022-10-14T00:16:29.679Z,10.30
2022-10-14T00:19:00.313Z,10.30
2022-10-14T00:21:28.758Z,10.20
2022-10-14T00:23:56.366Z,10.20
2022-10-14T00:26:47.443Z,10.20
2022-10-14T00:29:18.788Z,10.20
2022-10-14T00:31:47.047Z,10.20
2022-10-14T00:34:16.075Z,10.10
2022-10-14T00:36:43.885Z,10.10
2022-10-14T00:39:11.292Z,10.20
2022-10-14T00:41:39.517Z,10.10
2022-10-14T00:44:15.499Z,10.10
2022-10-14T00:46:48.368Z,10.10
2022-10-14T00:49:21.074Z,10.10
2022-10-14T00:51:59.372Z,10.10
2022-10-14T00:54:32.327Z,10.00
2022-10-14T00:56:59.373Z,9.90
2022-10-14T00:59:26.336Z,10.10
2022-10-14T01:01:54.293Z,10.00
2022-10-14T01:04:21.519Z,10.00
2022-10-14T01:07:03.180Z,9.90
2022-10-14T01:09:47.858Z,9.90
2022-10-14T01:12:47.708Z,10.00
2022-10-14T01:15:41.020Z,10.00
2022-10-14T01:18:39.760Z,9.90
2022-10-14T01:21:16.848Z,9.90
2022-10-14T01:24:14.397Z,9.90
2022-10-14T01:27:05.362Z,9.80
2022-10-14T01:29:50.883Z,9.90
2022-10-14T01:32:23.558Z,9.90
2022-10-14T01:35:02.252Z,9.90
2022-10-14T01:37:31.791Z,9.90
2022-10-14T01:40:05.436Z,9.90
2022-10-14T01:42:36.493Z,9.80
2022-10-14T01:45:18.117Z,9.90
2022-10-14T01:47:49.119Z,9.90
2022-10-14T01:50:19.299Z,9.90
2022-10-14T01:52:56.009Z,10.00
2022-10-14T01:55:26.881Z,10.00
2022-10-14T01:57:56.567Z,9.90
2022-10-14T02:00:23.757Z,9.80
2022-10-14T02:02:50.802Z,9.80
2022-10-14T02:05:46.811Z,9.70
2022-10-14T02:08:39.480Z,9.70
2022-10-14T02:11:15.747Z,9.70
2022-10-14T02:14:09.301Z,9.80
2022-10-14T02:17:12.808Z,9.80
2022-10-14T02:20:07.782Z,9.80
2022-10-14T02:22:40.860Z,9.70
2022-10-14T02:25:16.128Z,9.70
2022-10-14T02:27:45.433Z,9.80
2022-10-14T02:30:13.298Z,9.70
2022-10-14T02:32:41.805Z,9.70
2022-10-14T02:35:11.580Z,9.70
2022-10-14T02:37:39.356Z,9.70
2022-10-14T02:40:11.678Z,9.70
2022-10-14T02:42:40.742Z,9.60
2022-10-14T02:45:11.311Z,9.60
2022-10-14T02:47:38.465Z,9.60
2022-10-14T02:50:05.846Z,9.70
2022-10-14T02:52:32.791Z,9.60
2022-10-14T02:54:59.748Z,9.60
2022-10-14T02:57:26.678Z,9.60
2022-10-14T02:59:53.834Z,9.60
2022-10-14T03:02:21.259Z,9.60
2022-10-14T03:04:48.687Z,9.50
2022-10-14T03:07:15.558Z,9.50
2022-10-14T03:09:42.528Z,9.50
2022-10-14T03:12:11.267Z,9.50
2022-10-14T03:14:38.158Z,9.50
2022-10-14T03:17:05.210Z,9.60
2022-10-14T03:19:32.358Z,9.60
2022-10-14T03:21:59.209Z,9.50
2022-10-14T03:24:26.264Z,9.50
2022-10-14T03:26:53.358Z,9.50
2022-10-14T03:29:20.700Z,9.50
2022-10-14T03:31:48.069Z,9.50
2022-10-14T03:34:15.059Z,9.40
2022-10-14T03:36:42.117Z,9.40
2022-10-14T03:39:10.783Z,9.40
2022-10-14T03:41:37.837Z,9.40
2022-10-14T03:44:05.099Z,9.40
2022-10-14T03:46:32.054Z,9.50
2022-10-14T03:48:59.164Z,9.50
2022-10-14T03:51:26.230Z,9.60
2022-10-14T03:53:53.087Z,9.50
2022-10-14T03:56:20.077Z,9.50
2022-10-14T03:58:47.087Z,9.60
2022-10-14T04:01:14.279Z,9.50
2022-10-14T04:03:41.683Z,9.50
2022-10-14T04:06:08.658Z,9.50
2022-10-14T04:08:35.505Z,9.40
2022-10-14T04:11:02.521Z,9.50
2022-10-14T04:13:29.984Z,9.50
2022-10-14T04:15:56.852Z,9.50
2022-10-14T04:18:23.808Z,9.50
2022-10-14T04:20:50.849Z,9.50
2022-10-14T04:23:17.678Z,9.40
2022-10-14T04:25:49.356Z,9.40
2022-10-14T04:28:16.349Z,9.20
2022-10-14T04:30:43.670Z,9.20
2022-10-14T04:33:11.096Z,9.30
2022-10-14T04:35:38.021Z,9.20
2022-10-14T04:38:05.106Z,9.20
2022-10-14T04:40:32.217Z,9.20
2022-10-14T04:42:59.592Z,9.20
2022-10-14T04:45:26.614Z,9.30
2022-10-14T04:47:53.577Z,9.20
2022-10-14T04:50:21.016Z,9.20
2022-10-14T04:52:48.068Z,9.10
2022-10-14T04:55:15.288Z,9.10
2022-10-14T04:57:44.044Z,9.10
2022-10-14T05:00:12.453Z,9.20
2022-10-14T05:02:39.480Z,9.30
2022-10-14T05:05:07.661Z,9.30
2022-10-14T05:07:35.129Z,9.30
2022-10-14T05:10:02.268Z,9.30
2022-10-14T05:12:29.398Z,9.30
2022-10-14T05:14:56.562Z,9.40
2022-10-14T05:17:23.567Z,9.40
2022-10-14T05:19:50.966Z,9.40
2022-10-14T05:22:18.000Z,9.40
2022-10-14T05:24:45.285Z,9.40
2022-10-14T05:27:14.571Z,9.30
2022-10-14T05:29:42.092Z,9.30
2022-10-14T05:32:09.284Z,9.30
2022-10-14T05:34:36.229Z,9.30
2022-10-14T05:37:03.789Z,9.40
2022-10-14T05:39:30.855Z,9.40
2022-10-14T05:41:57.786Z,9.30
2022-10-14T05:44:24.754Z,9.30
2022-10-14T05:46:52.138Z,9.30
2022-10-14T05:49:19.334Z,9.30
2022-10-14T05:51:46.654Z,9.30
2022-10-14T05:54:13.821Z,9.30
2022-10-14T05:56:40.821Z,9.40
2022-10-14T05:59:10.244Z,9.40
2022-10-14T06:01:38.450Z,9.30
2022-10-14T06:04:05.731Z,9.30
2022-10-14T06:06:33.086Z,9.40
2022-10-14T06:09:00.071Z,9.30
2022-10-14T06:11:27.147Z,9.40
2022-10-14T06:13:54.203Z,9.30
2022-10-14T06:16:21.174Z,9.40
2022-10-14T06:18:54.118Z,9.40
2022-10-14T06:21:24.185Z,9.40
2022-10-14T06:23:51.520Z,9.40
2022-10-14T06:26:21.287Z,9.40
2022-10-14T06:28:48.527Z,9.50
2022-10-14T06:31:15.551Z,9.60
2022-10-14T06:33:44.190Z,9.60
2022-10-14T06:36:12.217Z,9.50
2022-10-14T06:38:39.276Z,9.60
2022-10-14T06:41:07.521Z,9.60
2022-10-14T06:43:35.868Z,9.60
2022-10-14T06:46:05.845Z,9.60
2022-10-14T06:48:32.811Z,9.70
2022-10-14T06:51:01.216Z,9.70
2022-10-14T06:53:29.751Z,9.70
2022-10-14T06:56:02.023Z,9.60
2022-10-14T06:58:30.254Z,9.70
2022-10-14T07:01:03.306Z,9.80
2022-10-14T07:03:30.931Z,9.80
2022-10-14T07:05:58.020Z,9.70
2022-10-14T07:08:25.483Z,9.80
2022-10-14T07:10:52.514Z,9.90
2022-10-14T07:13:19.533Z,9.90
2022-10-14T07:15:49.932Z,9.90
2022-10-14T07:18:17.234Z,10.00
2022-10-14T07:20:44.288Z,10.00
2022-10-14T07:23:14.024Z,10.00
2022-10-14T07:25:41.329Z,10.00
2022-10-14T07:28:08.433Z,10.00
2022-10-14T07:30:35.584Z,10.00
2022-10-14T07:33:03.028Z,10.40
2022-10-14T07:35:30.787Z,10.80
2022-10-14T07:37:59.992Z,10.90
2022-10-14T07:40:27.630Z,10.60
2022-10-14T07:42:57.774Z,10.50
2022-10-14T07:45:25.345Z,10.50
2022-10-14T07:47:53.069Z,10.50
2022-10-14T07:50:20.564Z,10.40
2022-10-14T07:52:47.459Z,10.40
2022-10-14T07:55:16.025Z,10.50
2022-10-14T07:57:43.058Z,10.50
2022-10-14T08:00:10.936Z,10.60
2022-10-14T08:02:38.198Z,10.60
2022-10-14T08:05:33.072Z,10.60
2022-10-14T08:07:52.755Z,10.60
2022-10-14T08:10:19.801Z,10.70
2022-10-14T08:12:46.661Z,10.70
2022-10-14T08:15:13.893Z,10.80
2022-10-14T08:17:40.823Z,10.80
2022-10-14T08:20:08.569Z,10.80
2022-10-14T08:22:35.794Z,10.90
2022-10-14T08:25:02.761Z,10.90
2022-10-14T08:27:29.677Z,11.00
2022-10-14T08:29:56.719Z,11.00
2022-10-14T08:32:24.219Z,11.00
2022-10-14T08:34:52.186Z,11.10
2022-10-14T08:37:19.864Z,11.10
2022-10-14T08:39:46.821Z,11.20
2022-10-14T08:42:32.209Z,11.30
2022-10-14T08:45:10.524Z,11.30
2022-10-14T08:47:42.456Z,11.30
2022-10-14T08:50:20.592Z,11.40
2022-10-14T08:52:54.347Z,11.50
2022-10-14T08:55:30.173Z,11.50
2022-10-14T08:58:32.209Z,11.70
2022-10-14T09:01:07.690Z,11.70
2022-10-14T09:03:37.102Z,11.70
2022-10-14T09:06:28.523Z,11.70
2022-10-14T09:09:04.389Z,11.70
2022-10-14T09:11:37.313Z,11.80
2022-10-14T09:14:08.615Z,12.00
2022-10-14T09:16:39.135Z,12.10
2022-10-14T09:19:23.293Z,12.30
2022-10-14T09:21:53.737Z,12.50
2022-10-14T09:24:35.923Z,12.50
2022-10-14T09:27:07.099Z,12.60
2022-10-14T09:29:42.831Z,12.70
2022-10-14T09:32:14.713Z,12.70
2022-10-14T09:34:47.804Z,12.70
2022-10-14T09:37:35.180Z,12.80
2022-10-14T09:40:22.772Z,12.90
2022-10-14T09:43:12.246Z,13.00
2022-10-14T09:45:51.484Z,13.00
2022-10-14T09:48:40.171Z,13.10
2022-10-14T09:51:29.638Z,13.20
2022-10-14T09:54:07.316Z,13.20
2022-10-14T09:56:42.462Z,13.20
2022-10-14T09:59:22.804Z,13.20
2022-10-14T10:01:55.023Z,13.20
2022-10-14T10:04:48.065Z,13.10
2022-10-14T10:07:31.338Z,13.00
2022-10-14T10:10:01.122Z,13.00
2022-10-14T10:12:38.160Z,13.10
2022-10-14T10:15:07.234Z,13.00
2022-10-14T10:17:38.506Z,12.90
2022-10-14T10:20:32.020Z,12.90
2022-10-14T10:23:29.165Z,12.90
2022-10-14T10:25:58.762Z,12.90
2022-10-14T10:28:33.251Z,13.00
2022-10-14T10:31:29.344Z,13.00
2022-10-14T10:33:59.484Z,13.10
2022-10-14T10:36:36.106Z,13.10
2022-10-14T10:39:34.608Z,13.20
2022-10-14T10:42:06.993Z,13.30
2022-10-14T10:45:06.590Z,13.10
2022-10-14T10:47:42.405Z,13.10
2022-10-14T10:50:27.709Z,13.20
2022-10-14T10:53:18.586Z,13.20
2022-10-14T10:56:04.500Z,13.20
2022-10-14T10:58:55.336Z,13.10
2022-10-14T11:01:48.587Z,13.10
2022-10-14T11:05:01.200Z,13.10
2022-10-14T11:08:13.809Z,13.10
2022-10-14T11:11:36.049Z,13.20
2022-10-14T11:14:28.592Z,13.40
2022-10-14T11:17:12.436Z,13.50
2022-10-14T11:19:51.415Z,13.60
2022-10-14T11:22:43.756Z,13.50
2022-10-14T11:25:27.281Z,13.50
2022-10-14T11:28:16.810Z,13.60
2022-10-14T11:31:04.107Z,13.70
2022-10-14T11:33:51.391Z,13.80
2022-10-14T11:36:32.364Z,13.80
2022-10-14T11:39:33.254Z,13.70
2022-10-14T11:42:24.806Z,13.70
2022-10-14T11:45:10.489Z,13.70
2022-10-14T11:47:40.417Z,13.60
2022-10-14T11:50:26.822Z,13.50
2022-10-14T11:53:06.296Z,13.50
2022-10-14T11:55:40.193Z,13.50
2022-10-14T11:58:14.767Z,13.50
2022-10-14T12:00:45.154Z,13.60
2022-10-14T12:03:29.450Z,13.70
2022-10-14T12:06:05.098Z,13.80
2022-10-14T12:08:42.236Z,13.80
2022-10-14T12:11:25.912Z,13.90
2022-10-14T12:13:58.973Z,13.80
2022-10-14T12:16:26.267Z,13.90
2022-10-14T12:18:56.871Z,13.90
2022-10-14T12:21:29.649Z,13.90
2022-10-14T12:24:10.972Z,14.00
2022-10-14T12:26:55.278Z,14.10
2022-10-14T12:29:37.151Z,14.20
2022-10-14T12:32:04.100Z,14.50
2022-10-14T12:34:42.782Z,15.30
2022-10-14T12:37:50.431Z,16.00
2022-10-14T12:40:25.914Z,15.60
2022-10-14T12:43:00.134Z,14.90
2022-10-14T12:45:29.703Z,14.20
2022-10-14T12:48:23.982Z,13.90
2022-10-14T12:51:08.145Z,14.20
2022-10-14T12:53:37.169Z,14.30
2022-10-14T12:56:05.446Z,14.10
2022-10-14T12:58:41.510Z,14.00
2022-10-14T13:01:21.825Z,13.90
2022-10-14T13:04:05.848Z,13.80
2022-10-14T13:06:40.738Z,13.80
2022-10-14T13:09:15.537Z,13.90
2022-10-14T13:11:44.509Z,13.70
2022-10-14T13:14:53.758Z,13.90
2022-10-14T13:17:41.874Z,14.00
2022-10-14T13:20:34.205Z,14.00
2022-10-14T13:23:27.772Z,14.00
2022-10-14T13:26:20.202Z,13.80
2022-10-14T13:29:01.874Z,13.70
2022-10-14T13:32:02.795Z,13.60
2022-10-14T13:34:51.090Z,13.60
2022-10-14T13:37:44.930Z,13.80
2022-10-14T13:40:46.827Z,13.80
2022-10-14T13:43:29.683Z,13.80
2022-10-14T13:46:20.612Z,13.90
2022-10-14T13:48:53.115Z,14.00
2022-10-14T13:51:37.097Z,13.90
2022-10-14T13:54:23.702Z,13.80
2022-10-14T14:02:48.100Z,13.80
2022-10-14T14:05:20.819Z,13.70
2022-10-14T14:10:51.415Z,13.60
2022-10-14T14:13:25.367Z,13.60
2022-10-14T14:15:55.343Z,13.50
2022-10-14T14:18:49.509Z,13.50
2022-10-14T14:21:28.525Z,13.50
2022-10-14T14:25:12.574Z,13.60
2022-10-14T14:28:09.369Z,13.50
2022-10-14T14:34:32.688Z,13.60
2022-10-14T14:44:24.511Z,13.40
2022-10-14T14:47:42.848Z,13.30
2022-10-14T14:51:01.395Z,13.20
2022-10-14T15:00:37.662Z,13.10
2022-10-14T15:04:13.196Z,13.20
2022-10-14T15:08:22.091Z,13.00
2022-10-14T15:11:00.824Z,13.00
2022-10-14T15:20:44.150Z,12.90
2022-10-14T15:27:01.763Z,12.90
2022-10-14T16:13:06.353Z,12.30
2022-10-14T16:15:39.168Z,12.10
2022-10-14T16:18:06.218Z,12.10
2022-10-14T16:20:33.450Z,12.10
2022-10-14T16:23:04.427Z,12.10
2022-10-14T16:25:39.011Z,12.00
2022-10-14T16:28:10.164Z,12.00
2022-10-14T16:30:40.265Z,11.90
2022-10-14T16:33:07.706Z,11.90
2022-10-14T16:35:34.757Z,11.90
2022-10-14T16:38:01.899Z,11.80
2022-10-14T16:40:31.839Z,11.80
2022-10-14T16:43:01.111Z,11.70
2022-10-14T16:45:28.156Z,11.70
2022-10-14T16:47:55.137Z,11.70
2022-10-14T16:50:22.668Z,11.60
2022-10-14T16:53:08.498Z,11.60
2022-10-14T16:55:35.623Z,11.60
2022-10-14T16:58:03.018Z,11.50
2022-10-14T17:00:30.120Z,11.40
2022-10-14T17:02:57.145Z,11.40
2022-10-14T17:05:24.549Z,11.40
2022-10-14T17:07:52.528Z,11.40
2022-10-14T17:10:21.394Z,11.30
2022-10-14T17:12:48.515Z,11.30
2022-10-14T17:15:15.491Z,11.30
2022-10-14T17:17:42.420Z,11.30
2022-10-14T17:20:09.787Z,11.20
2022-10-14T17:22:37.026Z,11.20
2022-10-14T17:25:05.267Z,11.20
2022-10-14T17:27:32.279Z,11.20
2022-10-14T17:29:59.572Z,11.20
2022-10-14T17:32:28.360Z,11.20
2022-10-14T17:34:55.673Z,11.10
2022-10-14T17:37:22.932Z,11.10
2022-10-14T17:39:49.877Z,11.20
2022-10-14T17:42:17.053Z,11.20
2022-10-14T17:44:44.128Z,11.20
2022-10-14T17:47:11.396Z,11.20
2022-10-14T17:49:38.702Z,11.10
2022-10-14T17:52:06.468Z,11.10
2022-10-14T17:54:33.473Z,11.00
2022-10-14T17:57:00.479Z,11.00
2022-10-14T17:59:27.705Z,11.00
2022-10-14T18:02:02.645Z,11.00
2022-10-14T18:04:30.771Z,11.00
2022-10-14T18:06:59.093Z,11.10
2022-10-14T18:09:26.069Z,11.00
2022-10-14T18:12:09.921Z,11.00
2022-10-14T18:14:38.227Z,11.00
2022-10-14T18:17:05.389Z,11.00
2022-10-14T18:19:32.835Z,10.90
2022-10-14T18:21:59.836Z,10.90
2022-10-14T18:24:27.088Z,10.90
2022-10-14T18:26:54.062Z,10.80
2022-10-14T18:29:21.226Z,10.80
2022-10-14T18:31:53.416Z,10.80
2022-10-14T18:34:22.433Z,10.90
2022-10-14T18:36:49.698Z,10.90
2022-10-14T18:39:16.764Z,10.80
2022-10-14T18:41:44.041Z,10.70
2022-10-14T18:44:14.398Z,10.70
2022-10-14T18:46:41.448Z,10.70
2022-10-14T18:49:11.456Z,10.70
2022-10-14T18:51:40.273Z,10.70
2022-10-14T18:54:23.970Z,10.70
2022-10-14T18:56:50.869Z,10.70
2022-10-14T18:59:30.285Z,10.70
2022-10-14T19:02:00.052Z,10.70
2022-10-14T19:04:28.226Z,10.70
2022-10-14T19:06:55.322Z,10.70
2022-10-14T19:09:24.907Z,10.60
2022-10-14T19:11:53.802Z,10.70
2022-10-14T19:14:22.245Z,10.60
2022-10-14T19:16:50.669Z,10.60
2022-10-14T19:19:21.267Z,10.60
2022-10-14T19:21:53.707Z,10.70
2022-10-14T19:24:20.788Z,10.70
2022-10-14T19:26:48.073Z,10.70
2022-10-14T19:29:16.136Z,10.60
2022-10-14T19:31:44.260Z,10.60
2022-10-14T19:34:14.839Z,10.60
2022-10-14T19:36:43.094Z,10.60
2022-10-14T19:39:16.477Z,10.60
2022-10-14T19:41:45.114Z,10.60
2022-10-14T19:44:15.177Z,10.60
2022-10-14T19:46:42.791Z,10.60
2022-10-14T19:49:12.376Z,10.60
2022-10-14T19:51:39.909Z,10.60
2022-10-14T19:54:07.081Z,10.60
2022-10-14T19:56:34.139Z,10.70
2022-10-14T19:59:01.934Z,10.70
2022-10-14T20:01:30.885Z,10.70
2022-10-14T20:04:00.677Z,10.70
2022-10-14T20:06:31.631Z,10.70
2022-10-14T20:08:58.471Z,10.70
2022-10-14T20:11:25.829Z,10.70
2022-10-14T20:13:52.860Z,10.60
2022-10-14T20:16:19.827Z,10.70
2022-10-14T20:18:46.844Z,10.60
2022-10-14T20:21:15.428Z,10.70
2022-10-14T20:23:43.451Z,10.70
2022-10-14T20:26:21.696Z,10.70
2022-10-14T20:28:49.939Z,10.70
2022-10-14T20:31:19.725Z,10.60
2022-10-14T20:33:47.201Z,10.60
2022-10-14T20:36:18.277Z,10.60
2022-10-14T20:38:48.008Z,10.50
2022-10-14T20:41:24.063Z,10.60
2022-10-14T20:43:52.503Z,10.50
2022-10-14T20:46:26.005Z,10.50
2022-10-14T20:48:57.387Z,10.50
2022-10-14T20:51:24.471Z,10.50
2022-10-14T20:54:00.376Z,10.60
2022-10-14T20:56:31.401Z,10.60
2022-10-14T20:59:00.208Z,10.60
2022-10-14T21:01:29.143Z,10.60
2022-10-14T21:03:56.373Z,10.60
2022-10-14T21:06:24.480Z,10.50
2022-10-14T21:08:52.524Z,10.50
2022-10-14T21:11:23.227Z,10.60
2022-10-14T21:13:55.182Z,10.50
2022-10-14T21:16:25.125Z,10.60
2022-10-14T21:18:58.191Z,10.60
2022-10-14T21:21:28.002Z,10.60
2022-10-14T21:23:55.742Z,10.60
2022-10-14T21:26:23.014Z,10.50
2022-10-14T21:28:50.168Z,10.60
2022-10-14T21:31:19.252Z,10.60
2022-10-14T21:33:48.064Z,10.60
2022-10-14T21:36:16.862Z,10.70
2022-10-14T21:38:43.875Z,10.60
2022-10-14T21:41:11.381Z,10.60
2022-10-14T21:43:39.248Z,10.50
2022-10-14T21:46:12.032Z,10.50
2022-10-14T21:48:40.199Z,10.50
2022-10-14T21:51:14.243Z,10.50
2022-10-14T21:53:42.351Z,10.50
2022-10-14T21:56:12.819Z,10.60
2022-10-14T21:58:40.196Z,10.60
2022-10-14T22:01:13.194Z,10.60
2022-10-14T22:03:41.148Z,10.60
2022-10-14T22:06:11.098Z,10.60
2022-10-14T22:08:41.629Z,10.50
2022-10-14T22:11:16.586Z,10.50
2022-10-14T22:13:43.818Z,10.70
2022-10-14T22:16:10.795Z,10.60
2022-10-14T22:18:37.985Z,10.60
2022-10-14T22:21:07.201Z,10.60
2022-10-14T22:23:34.556Z,10.50
2022-10-14T22:26:04.563Z,10.50
2022-10-14T22:28:32.452Z,10.50
2022-10-14T22:31:11.631Z,10.50
2022-10-14T22:33:40.207Z,10.50
2022-10-14T22:36:11.788Z,10.50
2022-10-14T22:38:41.302Z,10.50
2022-10-14T22:41:09.909Z,10.50
2022-10-14T22:43:37.577Z,10.50
2022-10-14T22:46:07.349Z,10.60
2022-10-14T22:48:35.557Z,10.60
2022-10-14T22:51:10.963Z,10.60
2022-10-14T22:53:39.580Z,10.60
2022-10-14T22:56:08.291Z,10.60
2022-10-14T22:58:35.654Z,10.60
2022-10-14T23:01:21.594Z,10.60
2022-10-14T23:03:49.351Z,10.70
2022-10-14T23:06:16.739Z,10.70
2022-10-14T23:08:44.153Z,10.60
2022-10-14T23:11:17.649Z,10.70
2022-10-14T23:13:44.876Z,10.70
2022-10-14T23:16:14.893Z,10.70
2022-10-14T23:21:21.722Z,10.70
2022-10-14T23:23:50.098Z,10.80
2022-10-14T23:26:21.435Z,10.70
2022-10-14T23:28:59.617Z,10.80
2022-10-14T23:31:29.111Z,10.80
2022-10-14T23:33:59.161Z,10.80
2022-10-14T23:36:26.189Z,10.80
2022-10-14T23:38:53.281Z,10.70
2022-10-14T23:41:22.323Z,10.70
2022-10-14T23:43:50.764Z,10.70
2022-10-14T23:46:18.259Z,10.80
2022-10-14T23:48:51.513Z,10.80
2022-10-14T23:51:28.032Z,10.80
2022-10-14T23:53:54.967Z,10.80
2022-10-14T23:56:21.835Z,10.90
2022-10-14T23:58:48.984Z,10.90
